sensor_id;sensor_type;location;lat;lon;timestamp;P1;durP1;ratioP1;P2;durP2;ratioP2
43823;SDS011;29470;53.550;9.926;2023-03-05T00:01:52;4.47;;;1.05;;
43823;SDS011;29470;53.550;9.926;2023-03-05T00:06:55;8.02;;;1.08;;
43823;SDS011;29470;53.550;9.926;2023-03-05T00:11:57;8.00;;;1.20;;
43823;SDS011;29470;53.550;9.926;2023-03-05T00:17:01;9.63;;;2.22;;
43823;SDS011;29470;53.550;9.926;2023-03-05T00:22:04;8.85;;;1.17;;
43823;SDS011;29470;53.550;9.926;2023-03-05T00:27:07;5.68;;;1.27;;
43823;SDS011;29470;53.550;9.926;2023-03-05T00:32:11;6.63;;;1.13;;
43823;SDS011;29470;53.550;9.926;2023-03-05T00:37:14;4.45;;;0.80;;
43823;SDS011;29470;53.550;9.926;2023-03-05T00:42:17;8.02;;;1.83;;
43823;SDS011;29470;53.550;9.926;2023-03-05T00:47:21;6.38;;;1.27;;
43823;SDS011;29470;53.550;9.926;2023-03-05T00:52:24;4.63;;;0.80;;
43823;SDS011;29470;53.550;9.926;2023-03-05T00:57:27;6.95;;;1.42;;
43823;SDS011;29470;53.550;9.926;2023-03-05T01:02:31;6.25;;;1.83;;
43823;SDS011;29470;53.550;9.926;2023-03-05T01:07:35;6.80;;;1.65;;
43823;SDS011;29470;53.550;9.926;2023-03-05T01:12:37;6.88;;;1.17;;
43823;SDS011;29470;53.550;9.926;2023-03-05T01:17:42;6.20;;;1.02;;
43823;SDS011;29470;53.550;9.926;2023-03-05T01:22:45;6.10;;;1.20;;
43823;SDS011;29470;53.550;9.926;2023-03-05T01:27:48;5.15;;;1.13;;
43823;SDS011;29470;53.550;9.926;2023-03-05T01:32:52;8.85;;;2.33;;
43823;SDS011;29470;53.550;9.926;2023-03-05T01:37:56;5.75;;;1.52;;
43823;SDS011;29470;53.550;9.926;2023-03-05T01:43:00;3.63;;;1.05;;
43823;SDS011;29470;53.550;9.926;2023-03-05T01:48:21;5.30;;;1.05;;
43823;SDS011;29470;53.550;9.926;2023-03-05T01:53:24;6.00;;;1.00;;
43823;SDS011;29470;53.550;9.926;2023-03-05T01:58:27;5.68;;;0.88;;
43823;SDS011;29470;53.550;9.926;2023-03-05T02:03:32;3.03;;;0.68;;
43823;SDS011;29470;53.550;9.926;2023-03-05T02:08:35;9.48;;;1.45;;
43823;SDS011;29470;53.550;9.926;2023-03-05T02:13:39;8.82;;;1.30;;
43823;SDS011;29470;53.550;9.926;2023-03-05T02:18:43;4.60;;;1.30;;
43823;SDS011;29470;53.550;9.926;2023-03-05T02:23:47;5.03;;;1.17;;
43823;SDS011;29470;53.550;9.926;2023-03-05T02:28:51;5.85;;;1.20;;
43823;SDS011;29470;53.550;9.926;2023-03-05T02:33:58;5.72;;;1.30;;
43823;SDS011;29470;53.550;9.926;2023-03-05T02:39:02;8.98;;;1.73;;
43823;SDS011;29470;53.550;9.926;2023-03-05T02:44:06;7.00;;;1.88;;
43823;SDS011;29470;53.550;9.926;2023-03-05T02:49:09;8.23;;;2.38;;
43823;SDS011;29470;53.550;9.926;2023-03-05T02:54:13;7.47;;;1.85;;
43823;SDS011;29470;53.550;9.926;2023-03-05T02:59:16;4.55;;;1.60;;
43823;SDS011;29470;53.550;9.926;2023-03-05T03:04:20;6.43;;;1.58;;
43823;SDS011;29470;53.550;9.926;2023-03-05T03:09:24;6.55;;;1.70;;
43823;SDS011;29470;53.550;9.926;2023-03-05T03:14:29;4.43;;;1.70;;
43823;SDS011;29470;53.550;9.926;2023-03-05T03:19:32;4.75;;;1.95;;
43823;SDS011;29470;53.550;9.926;2023-03-05T03:24:37;5.28;;;1.50;;
43823;SDS011;29470;53.550;9.926;2023-03-05T03:29:41;7.50;;;1.92;;
43823;SDS011;29470;53.550;9.926;2023-03-05T03:34:44;9.35;;;1.77;;
43823;SDS011;29470;53.550;9.926;2023-03-05T03:39:49;4.80;;;1.50;;
43823;SDS011;29470;53.550;9.926;2023-03-05T03:44:52;5.57;;;1.70;;
43823;SDS011;29470;53.550;9.926;2023-03-05T03:49:55;7.45;;;1.60;;
43823;SDS011;29470;53.550;9.926;2023-03-05T03:55:00;4.88;;;1.23;;
43823;SDS011;29470;53.550;9.926;2023-03-05T04:00:04;4.63;;;1.20;;
43823;SDS011;29470;53.550;9.926;2023-03-05T04:05:12;4.53;;;1.13;;
43823;SDS011;29470;53.550;9.926;2023-03-05T04:10:16;6.72;;;1.30;;
43823;SDS011;29470;53.550;9.926;2023-03-05T04:15:20;4.25;;;1.15;;
43823;SDS011;29470;53.550;9.926;2023-03-05T04:20:22;3.67;;;1.30;;
43823;SDS011;29470;53.550;9.926;2023-03-05T04:25:27;5.15;;;1.52;;
43823;SDS011;29470;53.550;9.926;2023-03-05T04:30:29;8.40;;;2.17;;
43823;SDS011;29470;53.550;9.926;2023-03-05T04:35:32;6.68;;;1.55;;
43823;SDS011;29470;53.550;9.926;2023-03-05T04:40:37;7.38;;;1.90;;
43823;SDS011;29470;53.550;9.926;2023-03-05T04:45:40;6.32;;;2.13;;
43823;SDS011;29470;53.550;9.926;2023-03-05T04:50:43;6.80;;;2.42;;
43823;SDS011;29470;53.550;9.926;2023-03-05T04:55:52;5.70;;;1.85;;
43823;SDS011;29470;53.550;9.926;2023-03-05T05:00:58;4.18;;;1.60;;
43823;SDS011;29470;53.550;9.926;2023-03-05T05:06:02;6.28;;;1.38;;
43823;SDS011;29470;53.550;9.926;2023-03-05T05:11:07;5.68;;;1.10;;
43823;SDS011;29470;53.550;9.926;2023-03-05T05:16:13;3.63;;;1.10;;
43823;SDS011;29470;53.550;9.926;2023-03-05T05:21:16;5.82;;;0.98;;
43823;SDS011;29470;53.550;9.926;2023-03-05T05:26:22;5.97;;;1.05;;
43823;SDS011;29470;53.550;9.926;2023-03-05T05:31:24;3.22;;;1.00;;
43823;SDS011;29470;53.550;9.926;2023-03-05T05:36:27;4.95;;;1.05;;
43823;SDS011;29470;53.550;9.926;2023-03-05T05:41:32;3.42;;;0.90;;
43823;SDS011;29470;53.550;9.926;2023-03-05T05:46:35;3.42;;;0.90;;
43823;SDS011;29470;53.550;9.926;2023-03-05T05:51:38;3.40;;;0.80;;
43823;SDS011;29470;53.550;9.926;2023-03-05T05:56:42;3.75;;;0.80;;
43823;SDS011;29470;53.550;9.926;2023-03-05T06:01:45;4.55;;;0.80;;
43823;SDS011;29470;53.550;9.926;2023-03-05T06:06:48;1.38;;;0.55;;
43823;SDS011;29470;53.550;9.926;2023-03-05T06:11:53;8.35;;;1.00;;
43823;SDS011;29470;53.550;9.926;2023-03-05T06:16:55;3.65;;;0.77;;
43823;SDS011;29470;53.550;9.926;2023-03-05T06:21:58;2.00;;;0.50;;
43823;SDS011;29470;53.550;9.926;2023-03-05T06:27:03;1.95;;;0.50;;
43823;SDS011;29470;53.550;9.926;2023-03-05T06:32:06;3.30;;;0.60;;
43823;SDS011;29470;53.550;9.926;2023-03-05T06:37:09;1.88;;;0.60;;
43823;SDS011;29470;53.550;9.926;2023-03-05T06:42:13;2.50;;;0.70;;
43823;SDS011;29470;53.550;9.926;2023-03-05T06:47:17;2.67;;;1.20;;
43823;SDS011;29470;53.550;9.926;2023-03-05T06:52:20;5.82;;;1.30;;
43823;SDS011;29470;53.550;9.926;2023-03-05T06:57:25;3.20;;;1.20;;
43823;SDS011;29470;53.550;9.926;2023-03-05T07:02:27;4.45;;;1.27;;
43823;SDS011;29470;53.550;9.926;2023-03-05T07:07:30;3.80;;;1.40;;
43823;SDS011;29470;53.550;9.926;2023-03-05T07:12:35;6.30;;;1.33;;
43823;SDS011;29470;53.550;9.926;2023-03-05T07:17:39;7.13;;;1.20;;
43823;SDS011;29470;53.550;9.926;2023-03-05T07:22:41;6.40;;;1.10;;
43823;SDS011;29470;53.550;9.926;2023-03-05T07:27:46;4.80;;;1.10;;
43823;SDS011;29470;53.550;9.926;2023-03-05T07:32:49;2.10;;;0.70;;
43823;SDS011;29470;53.550;9.926;2023-03-05T07:37:52;3.17;;;0.77;;
43823;SDS011;29470;53.550;9.926;2023-03-05T07:42:57;2.53;;;0.88;;
43823;SDS011;29470;53.550;9.926;2023-03-05T07:48:04;5.35;;;1.10;;
43823;SDS011;29470;53.550;9.926;2023-03-05T07:53:08;4.55;;;1.00;;
43823;SDS011;29470;53.550;9.926;2023-03-05T07:58:12;4.82;;;1.23;;
43823;SDS011;29470;53.550;9.926;2023-03-05T08:03:16;3.60;;;1.00;;
43823;SDS011;29470;53.550;9.926;2023-03-05T08:08:20;5.53;;;1.20;;
43823;SDS011;29470;53.550;9.926;2023-03-05T08:13:24;4.45;;;1.30;;
43823;SDS011;29470;53.550;9.926;2023-03-05T08:18:27;3.88;;;1.33;;
43823;SDS011;29470;53.550;9.926;2023-03-05T08:23:30;5.28;;;1.40;;
43823;SDS011;29470;53.550;9.926;2023-03-05T08:28:36;5.32;;;1.40;;
43823;SDS011;29470;53.550;9.926;2023-03-05T08:33:38;6.25;;;1.55;;
43823;SDS011;29470;53.550;9.926;2023-03-05T08:38:42;5.25;;;1.50;;
43823;SDS011;29470;53.550;9.926;2023-03-05T08:43:48;8.32;;;2.63;;
43823;SDS011;29470;53.550;9.926;2023-03-05T08:48:51;6.95;;;1.60;;
43823;SDS011;29470;53.550;9.926;2023-03-05T08:53:54;6.68;;;1.85;;
43823;SDS011;29470;53.550;9.926;2023-03-05T08:59:01;4.18;;;1.48;;
43823;SDS011;29470;53.550;9.926;2023-03-05T09:04:05;3.08;;;1.45;;
43823;SDS011;29470;53.550;9.926;2023-03-05T09:09:07;4.93;;;1.38;;
43823;SDS011;29470;53.550;9.926;2023-03-05T09:14:12;3.83;;;0.90;;
43823;SDS011;29470;53.550;9.926;2023-03-05T09:19:15;3.97;;;1.30;;
43823;SDS011;29470;53.550;9.926;2023-03-05T09:24:17;4.43;;;1.20;;
43823;SDS011;29470;53.550;9.926;2023-03-05T09:29:21;1.98;;;0.80;;
43823;SDS011;29470;53.550;9.926;2023-03-05T09:34:24;6.95;;;1.35;;
43823;SDS011;29470;53.550;9.926;2023-03-05T09:39:27;3.85;;;0.77;;
43823;SDS011;29470;53.550;9.926;2023-03-05T09:44:34;6.85;;;0.95;;
43823;SDS011;29470;53.550;9.926;2023-03-05T09:49:45;3.78;;;1.00;;
43823;SDS011;29470;53.550;9.926;2023-03-05T09:54:57;3.38;;;0.90;;
43823;SDS011;29470;53.550;9.926;2023-03-05T10:00:02;4.65;;;1.40;;
43823;SDS011;29470;53.550;9.926;2023-03-05T10:05:12;4.43;;;1.10;;
43823;SDS011;29470;53.550;9.926;2023-03-05T10:10:19;4.47;;;0.95;;
43823;SDS011;29470;53.550;9.926;2023-03-05T10:15:30;5.82;;;1.33;;
43823;SDS011;29470;53.550;9.926;2023-03-05T10:20:40;4.55;;;1.88;;
43823;SDS011;29470;53.550;9.926;2023-03-05T10:26:01;4.05;;;1.38;;
43823;SDS011;29470;53.550;9.926;2023-03-05T10:31:20;6.45;;;1.80;;
43823;SDS011;29470;53.550;9.926;2023-03-05T10:36:36;2.67;;;1.38;;
43823;SDS011;29470;53.550;9.926;2023-03-05T10:41:50;4.07;;;1.55;;
43823;SDS011;29470;53.550;9.926;2023-03-05T10:47:06;7.10;;;1.90;;
43823;SDS011;29470;53.550;9.926;2023-03-05T10:52:16;4.60;;;1.80;;
43823;SDS011;29470;53.550;9.926;2023-03-05T10:57:23;2.97;;;1.40;;
43823;SDS011;29470;53.550;9.926;2023-03-05T11:02:28;2.00;;;0.60;;
43823;SDS011;29470;53.550;9.926;2023-03-05T11:07:33;2.28;;;1.10;;
43823;SDS011;29470;53.550;9.926;2023-03-05T11:12:37;4.30;;;0.80;;
43823;SDS011;29470;53.550;9.926;2023-03-05T11:17:42;6.63;;;0.82;;
43823;SDS011;29470;53.550;9.926;2023-03-05T11:23:00;2.73;;;0.70;;
43823;SDS011;29470;53.550;9.926;2023-03-05T11:28:16;2.65;;;0.50;;
43823;SDS011;29470;53.550;9.926;2023-03-05T11:33:34;4.32;;;0.80;;
43823;SDS011;29470;53.550;9.926;2023-03-05T11:38:45;3.17;;;0.82;;
43823;SDS011;29470;53.550;9.926;2023-03-05T11:43:52;9.45;;;4.25;;
43823;SDS011;29470;53.550;9.926;2023-03-05T11:48:58;8.00;;;2.95;;
43823;SDS011;29470;53.550;9.926;2023-03-05T11:54:04;1.90;;;1.20;;
43823;SDS011;29470;53.550;9.926;2023-03-05T11:59:12;4.35;;;1.42;;
43823;SDS011;29470;53.550;9.926;2023-03-05T12:04:19;4.35;;;1.13;;
43823;SDS011;29470;53.550;9.926;2023-03-05T12:09:36;2.40;;;0.70;;
43823;SDS011;29470;53.550;9.926;2023-03-05T12:14:43;3.90;;;0.77;;
43823;SDS011;29470;53.550;9.926;2023-03-05T12:19:54;1.92;;;0.50;;
43823;SDS011;29470;53.550;9.926;2023-03-05T12:36:09;1.80;;;0.65;;
43823;SDS011;29470;53.550;9.926;2023-03-05T12:41:37;4.93;;;0.73;;
43823;SDS011;29470;53.550;9.926;2023-03-05T12:46:41;3.15;;;0.40;;
43823;SDS011;29470;53.550;9.926;2023-03-05T12:51:46;1.23;;;0.50;;
43823;SDS011;29470;53.550;9.926;2023-03-05T12:56:51;3.22;;;0.60;;
43823;SDS011;29470;53.550;9.926;2023-03-05T13:01:56;1.40;;;0.40;;
43823;SDS011;29470;53.550;9.926;2023-03-05T13:07:11;3.92;;;0.77;;
43823;SDS011;29470;53.550;9.926;2023-03-05T13:12:16;2.45;;;0.73;;
43823;SDS011;29470;53.550;9.926;2023-03-05T13:17:29;2.88;;;0.80;;
43823;SDS011;29470;53.550;9.926;2023-03-05T13:22:36;4.70;;;0.80;;
43823;SDS011;29470;53.550;9.926;2023-03-05T13:27:39;0.90;;;0.52;;
43823;SDS011;29470;53.550;9.926;2023-03-05T13:32:42;4.03;;;0.68;;
43823;SDS011;29470;53.550;9.926;2023-03-05T13:37:47;3.38;;;0.60;;
43823;SDS011;29470;53.550;9.926;2023-03-05T13:42:51;4.95;;;0.50;;
43823;SDS011;29470;53.550;9.926;2023-03-05T13:47:55;2.90;;;0.50;;
43823;SDS011;29470;53.550;9.926;2023-03-05T13:53:13;1.90;;;0.80;;
43823;SDS011;29470;53.550;9.926;2023-03-05T14:03:39;1.73;;;0.60;;
43823;SDS011;29470;53.550;9.926;2023-03-05T14:08:49;2.20;;;0.55;;
43823;SDS011;29470;53.550;9.926;2023-03-05T14:13:57;2.63;;;0.52;;
43823;SDS011;29470;53.550;9.926;2023-03-05T14:19:25;5.38;;;0.77;;
43823;SDS011;29470;53.550;9.926;2023-03-05T14:24:35;3.53;;;1.00;;
43823;SDS011;29470;53.550;9.926;2023-03-05T14:29:42;3.78;;;0.57;;
43823;SDS011;29470;53.550;9.926;2023-03-05T14:34:47;3.22;;;0.68;;
43823;SDS011;29470;53.550;9.926;2023-03-05T14:39:55;4.45;;;0.70;;
43823;SDS011;29470;53.550;9.926;2023-03-05T14:45:08;4.93;;;0.95;;
43823;SDS011;29470;53.550;9.926;2023-03-05T14:50:14;3.03;;;0.82;;
43823;SDS011;29470;53.550;9.926;2023-03-05T14:55:20;3.97;;;0.80;;
43823;SDS011;29470;53.550;9.926;2023-03-05T15:00:25;3.65;;;1.15;;
43823;SDS011;29470;53.550;9.926;2023-03-05T15:05:29;4.32;;;1.10;;
43823;SDS011;29470;53.550;9.926;2023-03-05T15:10:33;2.08;;;0.80;;
43823;SDS011;29470;53.550;9.926;2023-03-05T15:15:36;3.22;;;1.02;;
43823;SDS011;29470;53.550;9.926;2023-03-05T15:20:40;2.95;;;0.55;;
43823;SDS011;29470;53.550;9.926;2023-03-05T15:25:45;4.40;;;0.80;;
43823;SDS011;29470;53.550;9.926;2023-03-05T15:30:47;3.63;;;0.65;;
43823;SDS011;29470;53.550;9.926;2023-03-05T15:35:50;3.30;;;0.60;;
43823;SDS011;29470;53.550;9.926;2023-03-05T15:40:54;2.78;;;0.70;;
43823;SDS011;29470;53.550;9.926;2023-03-05T15:45:58;2.22;;;0.60;;
43823;SDS011;29470;53.550;9.926;2023-03-05T15:51:04;4.88;;;1.35;;
43823;SDS011;29470;53.550;9.926;2023-03-05T15:56:12;3.20;;;0.77;;
43823;SDS011;29470;53.550;9.926;2023-03-05T16:01:15;2.50;;;0.90;;
43823;SDS011;29470;53.550;9.926;2023-03-05T16:06:21;4.68;;;0.90;;
43823;SDS011;29470;53.550;9.926;2023-03-05T16:11:27;7.47;;;2.47;;
43823;SDS011;29470;53.550;9.926;2023-03-05T16:16:32;3.33;;;0.70;;
43823;SDS011;29470;53.550;9.926;2023-03-05T16:21:36;3.45;;;0.70;;
43823;SDS011;29470;53.550;9.926;2023-03-05T16:26:40;4.03;;;0.70;;
43823;SDS011;29470;53.550;9.926;2023-03-05T16:31:43;3.28;;;0.75;;
43823;SDS011;29470;53.550;9.926;2023-03-05T16:36:48;4.82;;;1.10;;
43823;SDS011;29470;53.550;9.926;2023-03-05T16:41:54;4.05;;;1.05;;
43823;SDS011;29470;53.550;9.926;2023-03-05T16:46:58;5.13;;;1.10;;
43823;SDS011;29470;53.550;9.926;2023-03-05T16:52:00;5.22;;;1.25;;
43823;SDS011;29470;53.550;9.926;2023-03-05T16:57:20;4.45;;;0.80;;
43823;SDS011;29470;53.550;9.926;2023-03-05T17:02:24;1.17;;;0.63;;
43823;SDS011;29470;53.550;9.926;2023-03-05T17:07:26;3.30;;;0.80;;
43823;SDS011;29470;53.550;9.926;2023-03-05T17:12:31;3.17;;;1.23;;
43823;SDS011;29470;53.550;9.926;2023-03-05T17:17:33;3.75;;;0.90;;
43823;SDS011;29470;53.550;9.926;2023-03-05T17:22:38;3.35;;;1.40;;
43823;SDS011;29470;53.550;9.926;2023-03-05T17:27:42;2.58;;;0.80;;
43823;SDS011;29470;53.550;9.926;2023-03-05T17:32:45;5.55;;;0.90;;
43823;SDS011;29470;53.550;9.926;2023-03-05T17:37:48;2.88;;;1.20;;
43823;SDS011;29470;53.550;9.926;2023-03-05T17:42:55;9.38;;;1.55;;
43823;SDS011;29470;53.550;9.926;2023-03-05T17:47:57;5.80;;;1.50;;
43823;SDS011;29470;53.550;9.926;2023-03-05T17:53:00;5.53;;;1.45;;
43823;SDS011;29470;53.550;9.926;2023-03-05T17:58:04;7.15;;;2.38;;
43823;SDS011;29470;53.550;9.926;2023-03-05T18:03:07;4.50;;;2.00;;
43823;SDS011;29470;53.550;9.926;2023-03-05T18:08:10;5.45;;;2.10;;
43823;SDS011;29470;53.550;9.926;2023-03-05T18:13:15;8.70;;;2.45;;
43823;SDS011;29470;53.550;9.926;2023-03-05T18:18:17;5.68;;;1.90;;
43823;SDS011;29470;53.550;9.926;2023-03-05T18:23:21;6.03;;;1.95;;
43823;SDS011;29470;53.550;9.926;2023-03-05T18:28:25;5.05;;;2.00;;
43823;SDS011;29470;53.550;9.926;2023-03-05T18:33:28;8.23;;;2.22;;
43823;SDS011;29470;53.550;9.926;2023-03-05T18:38:31;7.63;;;3.17;;
43823;SDS011;29470;53.550;9.926;2023-03-05T18:43:36;6.03;;;2.38;;
43823;SDS011;29470;53.550;9.926;2023-03-05T18:48:40;6.25;;;3.25;;
43823;SDS011;29470;53.550;9.926;2023-03-05T18:53:43;8.52;;;2.50;;
43823;SDS011;29470;53.550;9.926;2023-03-05T18:58:48;8.45;;;2.30;;
43823;SDS011;29470;53.550;9.926;2023-03-05T19:03:51;6.45;;;2.80;;
43823;SDS011;29470;53.550;9.926;2023-03-05T19:08:55;5.50;;;2.25;;
43823;SDS011;29470;53.550;9.926;2023-03-05T19:14:00;6.45;;;1.85;;
43823;SDS011;29470;53.550;9.926;2023-03-05T19:19:03;6.80;;;2.30;;
43823;SDS011;29470;53.550;9.926;2023-03-05T19:24:14;7.50;;;2.67;;
43823;SDS011;29470;53.550;9.926;2023-03-05T19:29:19;7.47;;;2.38;;
43823;SDS011;29470;53.550;9.926;2023-03-05T19:34:23;7.35;;;3.38;;
43823;SDS011;29470;53.550;9.926;2023-03-05T19:39:26;4.93;;;2.80;;
43823;SDS011;29470;53.550;9.926;2023-03-05T19:44:30;8.05;;;2.70;;
43823;SDS011;29470;53.550;9.926;2023-03-05T19:49:33;8.95;;;2.70;;
43823;SDS011;29470;53.550;9.926;2023-03-05T19:54:36;12.27;;;4.03;;
43823;SDS011;29470;53.550;9.926;2023-03-05T19:59:40;9.43;;;4.72;;
43823;SDS011;29470;53.550;9.926;2023-03-05T20:04:44;9.82;;;4.90;;
43823;SDS011;29470;53.550;9.926;2023-03-05T20:09:47;8.65;;;5.32;;
43823;SDS011;29470;53.550;9.926;2023-03-05T20:14:58;14.23;;;5.47;;
43823;SDS011;29470;53.550;9.926;2023-03-05T20:20:11;10.02;;;5.70;;
43823;SDS011;29470;53.550;9.926;2023-03-05T20:25:16;9.40;;;4.95;;
43823;SDS011;29470;53.550;9.926;2023-03-05T20:30:22;7.82;;;4.63;;
43823;SDS011;29470;53.550;9.926;2023-03-05T20:35:25;7.13;;;3.55;;
43823;SDS011;29470;53.550;9.926;2023-03-05T20:40:28;9.35;;;4.47;;
43823;SDS011;29470;53.550;9.926;2023-03-05T20:45:33;10.00;;;4.50;;
43823;SDS011;29470;53.550;9.926;2023-03-05T20:50:36;9.02;;;4.93;;
43823;SDS011;29470;53.550;9.926;2023-03-05T20:55:41;7.85;;;4.15;;
43823;SDS011;29470;53.550;9.926;2023-03-05T21:00:45;6.38;;;3.80;;
43823;SDS011;29470;53.550;9.926;2023-03-05T21:05:48;8.93;;;4.72;;
43823;SDS011;29470;53.550;9.926;2023-03-05T21:10:51;9.38;;;5.22;;
43823;SDS011;29470;53.550;9.926;2023-03-05T21:15:55;8.95;;;4.60;;
43823;SDS011;29470;53.550;9.926;2023-03-05T21:20:58;7.05;;;4.05;;
43823;SDS011;29470;53.550;9.926;2023-03-05T21:26:01;7.47;;;4.00;;
43823;SDS011;29470;53.550;9.926;2023-03-05T21:31:07;8.15;;;4.28;;
43823;SDS011;29470;53.550;9.926;2023-03-05T21:36:12;10.82;;;5.30;;
43823;SDS011;29470;53.550;9.926;2023-03-05T21:41:19;9.32;;;4.32;;
43823;SDS011;29470;53.550;9.926;2023-03-05T21:46:24;10.38;;;5.53;;
43823;SDS011;29470;53.550;9.926;2023-03-05T21:51:27;8.75;;;4.68;;
43823;SDS011;29470;53.550;9.926;2023-03-05T21:56:38;8.65;;;4.90;;
43823;SDS011;29470;53.550;9.926;2023-03-05T22:01:42;9.65;;;5.53;;
43823;SDS011;29470;53.550;9.926;2023-03-05T22:06:45;10.05;;;5.63;;
43823;SDS011;29470;53.550;9.926;2023-03-05T22:11:48;10.13;;;4.85;;
43823;SDS011;29470;53.550;9.926;2023-03-05T22:16:52;10.63;;;4.68;;
43823;SDS011;29470;53.550;9.926;2023-03-05T22:21:57;8.25;;;4.80;;
43823;SDS011;29470;53.550;9.926;2023-03-05T22:27:00;10.20;;;4.95;;
43823;SDS011;29470;53.550;9.926;2023-03-05T22:32:04;8.88;;;4.35;;
43823;SDS011;29470;53.550;9.926;2023-03-05T22:37:07;11.57;;;5.43;;
43823;SDS011;29470;53.550;9.926;2023-03-05T22:42:10;11.15;;;5.40;;
43823;SDS011;29470;53.550;9.926;2023-03-05T22:47:14;9.85;;;5.00;;
43823;SDS011;29470;53.550;9.926;2023-03-05T22:52:17;10.15;;;5.70;;
43823;SDS011;29470;53.550;9.926;2023-03-05T22:57:20;13.77;;;6.55;;
43823;SDS011;29470;53.550;9.926;2023-03-05T23:02:24;12.27;;;6.07;;
43823;SDS011;29470;53.550;9.926;2023-03-05T23:07:28;12.02;;;6.20;;
43823;SDS011;29470;53.550;9.926;2023-03-05T23:12:33;14.35;;;6.47;;
43823;SDS011;29470;53.550;9.926;2023-03-05T23:17:38;12.85;;;6.53;;
43823;SDS011;29470;53.550;9.926;2023-03-05T23:22:42;11.98;;;6.32;;
43823;SDS011;29470;53.550;9.926;2023-03-05T23:27:46;11.65;;;5.50;;
43823;SDS011;29470;53.550;9.926;2023-03-05T23:32:51;8.25;;;3.80;;
43823;SDS011;29470;53.550;9.926;2023-03-05T23:37:56;8.20;;;3.90;;
43823;SDS011;29470;53.550;9.926;2023-03-05T23:42:59;6.03;;;3.30;;
43823;SDS011;29470;53.550;9.926;2023-03-05T23:48:04;10.80;;;3.13;;
43823;SDS011;29470;53.550;9.926;2023-03-05T23:53:07;7.85;;;3.38;;
43823;SDS011;29470;53.550;9.926;2023-03-05T23:58:10;6.28;;;3.50;;
